Time;durP1;ratioP1;P1;durP2;ratioP2;P2;SDS_P1;SDS_P2;PMS_P1;PMS_P2;Temp;Humidity;BMP_temperature;BMP_pressure;BME280_temperature;BME280_humidity;BME280_pressure;Samples;Min_cycle;Max_cycle;Signal;HPM_P1;HPM_P2
2023/01/09 00:00:09;;;;;;;19.60;11.63;;;;;;;;;;1046729;28;20017;-76
2023/01/09 00:00:40;;;;;;;27.08;10.85;;;;;;;;;;1046701;28;20032;-76
2023/01/09 00:01:24;;;;;;;23.25;12.32;;;;;;;;;;1046376;28;20054;-76
2023/01/09 00:01:55;;;;;;;19.42;9.80;;;;;;;;;;1046574;28;20051;-76
2023/01/09 00:02:25;;;;;;;25.05;10.75;;;;;;;;;;1046585;28;20527;-76
2023/01/09 00:02:56;;;;;;;20.23;10.50;;;;;;;;;;1046424;28;20029;-76
2023/01/09 00:03:27;;;;;;;18.17;11.52;;;;;;;;;;1045757;28;20506;-76
2023/01/09 00:03:57;;;;;;;18.92;10.57;;;;;;;;;;1046897;28;20025;-76
2023/01/09 00:04:28;;;;;;;22.83;13.07;;;;;;;;;;1046165;28;20027;-76
2023/01/09 00:04:59;;;;;;;26.75;14.00;;;;;;;;;;1045712;28;20024;-76
2023/01/09 00:05:29;;;;;;;23.63;12.18;;;;;;;;;;1046219;28;20075;-77
2023/01/09 00:06:00;;;;;;;24.17;12.45;;;;;;;;;;1047197;28;20024;-77
2023/01/09 00:06:30;;;;;;;27.05;12.20;;;;;;;;;;1046762;28;20074;-77
2023/01/09 00:07:01;;;;;;;28.00;12.57;;;;;;;;;;1046920;28;20060;-76
2023/01/09 00:07:31;;;;;;;23.13;10.07;;;;;;;;;;1047232;28;20366;-77
2023/01/09 00:08:02;;;;;;;20.92;11.10;;;;;;;;;;1047247;28;20084;-77
2023/01/09 00:08:33;;;;;;;27.25;13.98;;;;;;;;;;1047474;28;20030;-77
2023/01/09 00:09:03;;;;;;;20.83;11.70;;;;;;;;;;1046073;28;20024;-76
2023/01/09 00:09:34;;;;;;;24.35;13.05;;;;;;;;;;1047323;28;20016;-76
2023/01/09 00:10:04;;;;;;;23.20;12.95;;;;;;;;;;1046771;28;20032;-76
2023/01/09 00:10:35;;;;;;;22.10;12.25;;;;;;;;;;1046910;28;20016;-76
2023/01/09 00:11:06;;;;;;;24.08;12.07;;;;;;;;;;1047771;28;20423;-76
2023/01/09 00:11:37;;;;;;;28.65;13.15;;;;;;;;;;1048419;28;20019;-76
2023/01/09 00:12:07;;;;;;;25.63;12.50;;;;;;;;;;1045843;28;20017;-76
2023/01/09 00:12:38;;;;;;;21.85;11.85;;;;;;;;;;1046471;28;20515;-76
2023/01/09 00:13:12;;;;;;;21.63;11.07;;;;;;;;;;1049541;28;20087;-75
2023/01/09 00:13:43;;;;;;;24.23;11.88;;;;;;;;;;1048565;28;20055;-76
2023/01/09 00:14:14;;;;;;;26.42;12.38;;;;;;;;;;1048724;28;20175;-76
2023/01/09 00:14:45;;;;;;;26.10;13.18;;;;;;;;;;1049143;28;20025;-76
2023/01/09 00:15:15;;;;;;;23.10;11.93;;;;;;;;;;1049761;28;20043;-76
2023/01/09 00:15:47;;;;;;;21.42;11.10;;;;;;;;;;1048920;28;20017;-76
2023/01/09 00:16:18;;;;;;;21.80;11.10;;;;;;;;;;1046067;28;20536;-76
2023/01/09 00:16:49;;;;;;;21.70;12.80;;;;;;;;;;1048290;28;20028;-76
2023/01/09 00:17:19;;;;;;;22.00;10.93;;;;;;;;;;1048179;28;20098;-76
2023/01/09 00:17:50;;;;;;;26.00;11.38;;;;;;;;;;1050253;28;20111;-76
2023/01/09 00:18:20;;;;;;;24.63;11.73;;;;;;;;;;1053383;28;20028;-76
2023/01/09 00:18:52;;;;;;;19.88;9.75;;;;;;;;;;1046684;28;20388;-76
2023/01/09 00:19:22;;;;;;;20.10;10.02;;;;;;;;;;1046171;28;20024;-76
2023/01/09 00:19:53;;;;;;;20.23;9.15;;;;;;;;;;1045958;28;20021;-76
2023/01/09 00:20:23;;;;;;;21.67;9.25;;;;;;;;;;1045948;28;20108;-77
2023/01/09 00:20:54;;;;;;;19.88;8.90;;;;;;;;;;1046104;28;20027;-76
2023/01/09 00:21:24;;;;;;;22.73;11.02;;;;;;;;;;1048004;28;20123;-77
2023/01/09 00:21:55;;;;;;;20.13;10.30;;;;;;;;;;1044090;28;20564;-76
2023/01/09 00:22:25;;;;;;;21.80;11.60;;;;;;;;;;1044181;28;20496;-76
2023/01/09 00:22:56;;;;;;;20.02;10.48;;;;;;;;;;1048097;28;20477;-77
2023/01/09 00:23:26;;;;;;;21.13;10.48;;;;;;;;;;1045933;28;20103;-77
2023/01/09 00:23:57;;;;;;;19.85;10.63;;;;;;;;;;1046684;28;20013;-77
2023/01/09 00:24:28;;;;;;;18.73;9.52;;;;;;;;;;1046732;28;20056;-76
2023/01/09 00:24:58;;;;;;;15.88;9.30;;;;;;;;;;1046334;28;20024;-76
2023/01/09 00:25:29;;;;;;;26.88;10.60;;;;;;;;;;1046327;28;20024;-76
2023/01/09 00:26:03;;;;;;;19.58;10.73;;;;;;;;;;1045522;28;20021;-76
2023/01/09 00:26:34;;;;;;;20.48;11.20;;;;;;;;;;1046059;28;20028;-76
2023/01/09 00:27:05;;;;;;;17.08;9.35;;;;;;;;;;1045826;28;20103;-76
2023/01/09 00:27:35;;;;;;;18.05;8.98;;;;;;;;;;1045743;28;20021;-76
2023/01/09 00:28:06;;;;;;;23.17;11.40;;;;;;;;;;1046207;28;20039;-76
2023/01/09 00:28:37;;;;;;;13.63;8.55;;;;;;;;;;1046292;28;20028;-76
2023/01/09 00:29:09;;;;;;;23.15;9.68;;;;;;;;;;1045724;28;20400;-76
2023/01/09 00:29:44;;;;;;;17.45;10.57;;;;;;;;;;1051032;28;19997;-76
2023/01/09 00:30:15;;;;;;;22.25;10.77;;;;;;;;;;1046721;28;20033;-77
2023/01/09 00:30:54;;;;;;;21.80;10.55;;;;;;;;;;1046897;28;20031;-76
2023/01/09 00:31:24;;;;;;;27.25;10.75;;;;;;;;;;1049321;28;20025;-76
2023/01/09 00:31:55;;;;;;;16.98;9.45;;;;;;;;;;1048775;28;20025;-76
2023/01/09 00:32:26;;;;;;;21.58;11.02;;;;;;;;;;1046361;28;20017;-76
2023/01/09 00:32:56;;;;;;;18.58;9.68;;;;;;;;;;1046939;28;20020;-76
2023/01/09 00:33:32;;;;;;;18.38;8.35;;;;;;;;;;1046272;28;20028;-73
2023/01/09 00:34:04;;;;;;;21.50;10.25;;;;;;;;;;1046573;28;20037;-74
2023/01/09 00:34:36;;;;;;;16.08;9.15;;;;;;;;;;1047173;28;20012;-74
2023/01/09 00:35:08;;;;;;;20.35;9.75;;;;;;;;;;1049564;28;20021;-73
2023/01/09 00:35:39;;;;;;;19.70;11.43;;;;;;;;;;1049854;28;20470;-73
2023/01/09 00:36:10;;;;;;;28.30;14.10;;;;;;;;;;1050032;28;20017;-73
2023/01/09 00:36:41;;;;;;;22.08;12.75;;;;;;;;;;1046479;28;20025;-76
2023/01/09 00:37:12;;;;;;;24.30;11.63;;;;;;;;;;1046301;28;20020;-76
2023/01/09 00:37:43;;;;;;;23.38;11.32;;;;;;;;;;1046312;28;20058;-76
2023/01/09 00:38:13;;;;;;;19.02;10.85;;;;;;;;;;1045897;28;20415;-76
2023/01/09 00:38:44;;;;;;;20.25;11.07;;;;;;;;;;1046156;28;20074;-76
2023/01/09 00:39:14;;;;;;;23.00;12.63;;;;;;;;;;1046323;28;20078;-76
2023/01/09 00:39:45;;;;;;;19.73;9.57;;;;;;;;;;1046475;28;20017;-76
2023/01/09 00:40:16;;;;;;;19.60;10.85;;;;;;;;;;1046331;28;20035;-76
2023/01/09 00:40:46;;;;;;;21.77;10.95;;;;;;;;;;1046404;28;20025;-76
2023/01/09 00:41:24;;;;;;;20.83;9.73;;;;;;;;;;1044252;28;20472;-76
2023/01/09 00:41:55;;;;;;;19.35;10.05;;;;;;;;;;1046520;28;20070;-76
2023/01/09 00:42:27;;;;;;;25.30;9.77;;;;;;;;;;1046443;28;20021;-76
2023/01/09 00:42:58;;;;;;;18.80;10.95;;;;;;;;;;1045992;28;20051;-76
2023/01/09 00:43:31;;;;;;;26.77;12.25;;;;;;;;;;1042169;28;20414;-76
2023/01/09 00:44:05;;;;;;;26.30;10.70;;;;;;;;;;1042867;28;20029;-76
2023/01/09 00:44:40;;;;;;;22.33;10.88;;;;;;;;;;1043067;28;20138;-76
2023/01/09 00:45:13;;;;;;;23.75;12.93;;;;;;;;;;1046399;28;20404;-76
2023/01/09 00:45:44;;;;;;;23.58;11.25;;;;;;;;;;1046822;28;20030;-76
2023/01/09 00:46:15;;;;;;;22.00;11.23;;;;;;;;;;1046110;28;20109;-76
2023/01/09 00:46:48;;;;;;;27.15;11.82;;;;;;;;;;1046727;28;20021;-76
2023/01/09 00:47:23;;;;;;;20.85;10.00;;;;;;;;;;1046063;28;20469;-76
2023/01/09 00:47:56;;;;;;;25.38;12.52;;;;;;;;;;1046192;28;20537;-76
2023/01/09 00:48:28;;;;;;;28.80;13.48;;;;;;;;;;1046652;28;20099;-76
2023/01/09 00:48:59;;;;;;;24.25;13.27;;;;;;;;;;1046606;28;20023;-76
2023/01/09 00:49:33;;;;;;;28.27;14.52;;;;;;;;;;1046341;28;20025;-76
2023/01/09 00:50:09;;;;;;;22.80;12.88;;;;;;;;;;1046505;28;20456;-76
2023/01/09 00:50:40;;;;;;;23.70;11.23;;;;;;;;;;1046843;28;20059;-76
2023/01/09 00:51:10;;;;;;;22.40;10.60;;;;;;;;;;1045288;28;20035;-76
2023/01/09 00:51:41;;;;;;;28.65;11.57;;;;;;;;;;1045040;28;20468;-76
2023/01/09 00:52:12;;;;;;;18.63;11.85;;;;;;;;;;1045435;28;20059;-76
2023/01/09 00:52:43;;;;;;;22.50;11.13;;;;;;;;;;1046104;28;20066;-76
2023/01/09 00:53:16;;;;;;;20.40;11.52;;;;;;;;;;1045889;28;20032;-76
2023/01/09 00:53:47;;;;;;;16.98;9.18;;;;;;;;;;1046208;28;20016;-76
2023/01/09 00:54:18;;;;;;;21.73;10.88;;;;;;;;;;1045722;28;20036;-76
2023/01/09 00:54:49;;;;;;;20.20;11.95;;;;;;;;;;1044792;28;20029;-76
2023/01/09 00:55:19;;;;;;;17.63;10.45;;;;;;;;;;1046115;28;20379;-76
2023/01/09 00:55:50;;;;;;;16.10;9.80;;;;;;;;;;1046621;28;20119;-76
2023/01/09 00:56:21;;;;;;;17.90;9.60;;;;;;;;;;1045587;28;20028;-76
2023/01/09 00:56:52;;;;;;;15.38;8.65;;;;;;;;;;1046415;28;20375;-76
2023/01/09 00:57:22;;;;;;;18.88;9.88;;;;;;;;;;1046156;28;20029;-76
2023/01/09 00:57:54;;;;;;;18.98;8.80;;;;;;;;;;1045777;28;20021;-76
2023/01/09 00:58:24;;;;;;;22.27;10.75;;;;;;;;;;1045851;28;20013;-76
2023/01/09 00:58:55;;;;;;;21.45;10.18;;;;;;;;;;1046133;28;20420;-76
2023/01/09 00:59:26;;;;;;;15.90;9.05;;;;;;;;;;1046287;28;21227;-76
2023/01/09 00:59:57;;;;;;;12.65;7.93;;;;;;;;;;1046517;28;20383;-76
2023/01/09 01:00:28;;;;;;;11.57;7.97;;;;;;;;;;1046134;28;20021;-76
2023/01/09 01:00:58;;;;;;;13.35;7.57;;;;;;;;;;1045976;28;20414;-76
2023/01/09 01:01:29;;;;;;;14.90;8.55;;;;;;;;;;1046136;28;20380;-76
2023/01/09 01:01:59;;;;;;;16.20;8.68;;;;;;;;;;1046511;28;20465;-76
2023/01/09 01:02:30;;;;;;;13.65;8.27;;;;;;;;;;1045975;28;20048;-76
2023/01/09 01:03:00;;;;;;;19.23;9.52;;;;;;;;;;1045605;28;20586;-76
2023/01/09 01:03:31;;;;;;;17.02;8.13;;;;;;;;;;1043770;28;20052;-76
2023/01/09 01:07:37;;;;;;;13.43;8.52;;;;;;;;;;1045518;28;20024;-76
2023/01/09 01:08:14;;;;;;;13.35;6.63;;;;;;;;;;1046175;28;20025;-76
2023/01/09 01:08:45;;;;;;;12.20;7.20;;;;;;;;;;1046604;28;20025;-76
2023/01/09 01:09:15;;;;;;;12.13;6.30;;;;;;;;;;1045337;28;20396;-76
2023/01/09 01:09:46;;;;;;;7.88;5.63;;;;;;;;;;1045933;28;20418;-76
2023/01/09 01:10:21;;;;;;;12.75;8.60;;;;;;;;;;1046563;28;20028;-76
2023/01/09 01:10:52;;;;;;;14.13;7.72;;;;;;;;;;1046222;28;20025;-76
2023/01/09 01:11:22;;;;;;;16.10;8.60;;;;;;;;;;1045794;28;20677;-76
2023/01/09 01:11:53;;;;;;;10.68;6.90;;;;;;;;;;1045607;28;20104;-76
2023/01/09 01:12:24;;;;;;;12.38;6.40;;;;;;;;;;1046023;28;20390;-76
2023/01/09 01:12:54;;;;;;;11.88;7.05;;;;;;;;;;1045739;28;20675;-76
2023/01/09 01:13:25;;;;;;;12.00;5.25;;;;;;;;;;1045770;28;20020;-76
2023/01/09 01:13:55;;;;;;;11.55;6.35;;;;;;;;;;1046618;28;20025;-76
2023/01/09 01:14:26;;;;;;;8.85;5.60;;;;;;;;;;1046142;28;20081;-76
2023/01/09 01:14:56;;;;;;;11.60;6.13;;;;;;;;;;1045466;28;20481;-76
2023/01/09 01:15:28;;;;;;;11.90;6.05;;;;;;;;;;1046010;28;20021;-76
2023/01/09 01:15:58;;;;;;;11.23;6.55;;;;;;;;;;1045021;28;20028;-77
2023/01/09 01:16:29;;;;;;;12.18;6.88;;;;;;;;;;1045581;28;20066;-77
2023/01/09 01:16:59;;;;;;;9.77;5.22;;;;;;;;;;1046280;28;20016;-76
2023/01/09 01:17:32;;;;;;;8.38;5.47;;;;;;;;;;1045615;28;20039;-76
2023/01/09 01:18:03;;;;;;;9.73;5.60;;;;;;;;;;1046007;28;20017;-76
2023/01/09 01:18:33;;;;;;;8.70;4.50;;;;;;;;;;1046150;28;20115;-76
2023/01/09 01:19:04;;;;;;;9.73;5.63;;;;;;;;;;1047097;28;20029;-76
2023/01/09 01:19:35;;;;;;;11.82;6.03;;;;;;;;;;1046061;28;20464;-76
2023/01/09 01:20:08;;;;;;;11.98;7.05;;;;;;;;;;1046891;28;20400;-76
2023/01/09 01:20:39;;;;;;;9.63;5.20;;;;;;;;;;1046662;28;20008;-76
2023/01/09 01:21:11;;;;;;;12.02;6.18;;;;;;;;;;1045879;28;20074;-76
2023/01/09 01:21:41;;;;;;;12.85;5.60;;;;;;;;;;1046775;28;20020;-77
2023/01/09 01:22:12;;;;;;;14.27;6.07;;;;;;;;;;1046897;28;20032;-77
2023/01/09 01:22:42;;;;;;;10.20;6.38;;;;;;;;;;1044668;28;20020;-76
2023/01/09 01:23:13;;;;;;;11.73;6.20;;;;;;;;;;1045782;28;20081;-77
2023/01/09 01:23:44;;;;;;;12.07;6.88;;;;;;;;;;1041368;28;20393;-76
2023/01/09 01:24:18;;;;;;;9.60;4.63;;;;;;;;;;1042869;28;20027;-76
2023/01/09 01:24:49;;;;;;;10.40;5.03;;;;;;;;;;1042737;28;20523;-77
2023/01/09 01:25:20;;;;;;;7.72;4.50;;;;;;;;;;1042280;28;20024;-76
2023/01/09 01:25:53;;;;;;;12.10;5.53;;;;;;;;;;1045387;28;20032;-76
2023/01/09 01:26:24;;;;;;;8.60;5.45;;;;;;;;;;1044276;28;20052;-77
2023/01/09 01:26:55;;;;;;;8.82;4.75;;;;;;;;;;1044809;28;20452;-76
2023/01/09 01:27:26;;;;;;;12.75;5.78;;;;;;;;;;1046361;28;20024;-77
2023/01/09 01:27:57;;;;;;;9.38;5.45;;;;;;;;;;1045931;28;20021;-77
2023/01/09 01:28:27;;;;;;;11.52;5.03;;;;;;;;;;1045913;28;20419;-76
2023/01/09 01:28:58;;;;;;;8.82;5.22;;;;;;;;;;1045362;28;20053;-77
2023/01/09 01:29:29;;;;;;;11.15;6.63;;;;;;;;;;1046116;28;20021;-77
2023/01/09 01:29:59;;;;;;;7.25;5.10;;;;;;;;;;1044733;28;20057;-77
2023/01/09 01:30:30;;;;;;;10.10;4.72;;;;;;;;;;1046212;28;20056;-73
2023/01/09 01:31:01;;;;;;;11.93;5.85;;;;;;;;;;1045372;28;20033;-75
2023/01/09 01:31:31;;;;;;;10.18;5.78;;;;;;;;;;1046261;28;20032;-75
2023/01/09 01:32:02;;;;;;;7.85;4.82;;;;;;;;;;1045546;28;20087;-75
2023/01/09 01:32:33;;;;;;;14.75;5.63;;;;;;;;;;1045885;28;20017;-74
2023/01/09 01:33:03;;;;;;;6.43;4.63;;;;;;;;;;1046269;28;20037;-75
2023/01/09 01:33:34;;;;;;;8.20;4.53;;;;;;;;;;1045194;28;20029;-75
2023/01/09 01:34:04;;;;;;;7.45;4.57;;;;;;;;;;1044351;28;20035;-75
2023/01/09 01:34:35;;;;;;;9.30;4.75;;;;;;;;;;1045757;28;20502;-75
2023/01/09 01:35:06;;;;;;;10.90;5.20;;;;;;;;;;1043358;28;20025;-75
2023/01/09 01:35:37;;;;;;;10.75;4.97;;;;;;;;;;1045761;28;20531;-75
2023/01/09 01:36:08;;;;;;;10.40;5.07;;;;;;;;;;1049388;28;20018;-75
2023/01/09 01:36:38;;;;;;;9.40;6.70;;;;;;;;;;1049702;28;20024;-75
2023/01/09 01:37:09;;;;;;;7.28;4.18;;;;;;;;;;1045343;28;20066;-76
2023/01/09 01:37:40;;;;;;;6.90;4.22;;;;;;;;;;1045807;28;20028;-76
2023/01/09 01:38:10;;;;;;;10.07;5.88;;;;;;;;;;1040924;28;20029;-76
2023/01/09 01:38:41;;;;;;;10.00;5.07;;;;;;;;;;1041952;28;20017;-75
2023/01/09 01:39:11;;;;;;;9.98;5.15;;;;;;;;;;1045057;28;20051;-75
2023/01/09 01:39:42;;;;;;;8.50;5.50;;;;;;;;;;1045597;28;20020;-75
2023/01/09 01:40:12;;;;;;;14.07;6.20;;;;;;;;;;1046358;28;20111;-75
2023/01/09 01:40:43;;;;;;;17.50;6.50;;;;;;;;;;1045956;28;20020;-76
2023/01/09 01:41:28;;;;;;;8.82;5.88;;;;;;;;;;1045346;28;20119;-76
2023/01/09 01:41:58;;;;;;;9.27;5.28;;;;;;;;;;1046579;28;20025;-76
2023/01/09 01:42:29;;;;;;;8.35;4.57;;;;;;;;;;1045632;28;20472;-76
2023/01/09 01:43:00;;;;;;;8.98;4.88;;;;;;;;;;1045067;28;20146;-76
2023/01/09 01:43:50;;;;;;;11.60;5.03;;;;;;;;;;1045999;28;20522;-76
2023/01/09 01:44:39;;;;;;;11.50;5.63;;;;;;;;;;1046766;28;20036;-76
2023/01/09 01:45:12;;;;;;;10.80;5.57;;;;;;;;;;1047114;28;20488;-76
2023/01/09 01:45:43;;;;;;;20.63;6.90;;;;;;;;;;1046004;28;20610;-75
2023/01/09 01:46:15;;;;;;;18.58;5.72;;;;;;;;;;1045272;28;20116;-75
2023/01/09 01:46:45;;;;;;;15.48;6.45;;;;;;;;;;1046123;28;20024;-75
2023/01/09 01:47:17;;;;;;;16.15;6.32;;;;;;;;;;1045510;28;20044;-75
2023/01/09 01:47:56;;;;;;;14.63;5.68;;;;;;;;;;1046900;28;20116;-76
2023/01/09 01:48:28;;;;;;;9.30;4.85;;;;;;;;;;1049094;28;20031;-75
2023/01/09 01:49:02;;;;;;;10.30;4.25;;;;;;;;;;1047128;28;20527;-75
2023/01/09 01:49:33;;;;;;;13.95;6.18;;;;;;;;;;1046628;28;20028;-76
2023/01/09 01:50:07;;;;;;;16.73;7.22;;;;;;;;;;1045007;28;20604;-76
2023/01/09 01:50:43;;;;;;;11.95;7.63;;;;;;;;;;1045600;28;20035;-76
2023/01/09 01:51:15;;;;;;;18.05;6.35;;;;;;;;;;1045405;28;20025;-76
2023/01/09 01:51:50;;;;;;;19.02;6.32;;;;;;;;;;1045948;28;20031;-76
2023/01/09 01:52:21;;;;;;;15.95;4.57;;;;;;;;;;1043635;28;20040;-76
2023/01/09 01:53:12;;;;;;;24.38;7.65;;;;;;;;;;1046283;28;20496;-76
2023/01/09 01:53:45;;;;;;;10.93;5.32;;;;;;;;;;1037197;28;20061;-76
2023/01/09 01:54:18;;;;;;;12.98;6.65;;;;;;;;;;1045257;28;20032;-76
2023/01/09 01:54:48;;;;;;;9.43;5.30;;;;;;;;;;1045270;28;20032;-76
2023/01/09 01:55:19;;;;;;;10.93;5.03;;;;;;;;;;1047191;28;20016;-76
2023/01/09 01:55:58;;;;;;;12.50;5.35;;;;;;;;;;1046400;28;20028;-76
2023/01/09 01:56:35;;;;;;;13.45;6.75;;;;;;;;;;1046340;28;20365;-76
2023/01/09 01:57:06;;;;;;;14.23;6.32;;;;;;;;;;1044981;28;20016;-76
2023/01/09 01:57:40;;;;;;;7.97;4.97;;;;;;;;;;1045768;28;20024;-76
2023/01/09 01:58:12;;;;;;;15.15;5.95;;;;;;;;;;1046392;28;20462;-76
2023/01/09 01:59:06;;;;;;;10.88;6.13;;;;;;;;;;1045635;28;20116;-75
2023/01/09 01:59:38;;;;;;;14.45;5.40;;;;;;;;;;1037210;28;20502;-75
2023/01/09 02:00:09;;;;;;;9.32;5.40;;;;;;;;;;1039376;28;20523;-74
2023/01/09 02:00:43;;;;;;;11.90;5.88;;;;;;;;;;1040891;28;20060;-75
2023/01/09 02:01:14;;;;;;;13.10;6.30;;;;;;;;;;1043218;28;20068;-74
2023/01/09 02:01:46;;;;;;;15.95;5.50;;;;;;;;;;1043427;28;20021;-75
2023/01/09 02:02:21;;;;;;;9.13;6.00;;;;;;;;;;1043588;28;20021;-75
2023/01/09 02:02:52;;;;;;;9.50;4.25;;;;;;;;;;1041091;28;20049;-75
2023/01/09 02:03:24;;;;;;;14.10;5.15;;;;;;;;;;1043215;28;20024;-75
2023/01/09 02:03:56;;;;;;;14.65;5.63;;;;;;;;;;1044752;28;20683;-75
2023/01/09 02:04:27;;;;;;;6.43;4.22;;;;;;;;;;1045043;28;20024;-75
2023/01/09 02:04:58;;;;;;;16.50;5.53;;;;;;;;;;1046095;28;20016;-75
2023/01/09 02:05:29;;;;;;;14.32;6.05;;;;;;;;;;1045017;28;20071;-75
2023/01/09 02:06:00;;;;;;;9.25;5.00;;;;;;;;;;1046772;28;20017;-76
2023/01/09 02:06:32;;;;;;;16.88;6.00;;;;;;;;;;1045104;28;20416;-76
2023/01/09 02:07:06;;;;;;;9.73;5.43;;;;;;;;;;1044211;28;20021;-75
2023/01/09 02:07:36;;;;;;;12.60;5.68;;;;;;;;;;1047334;28;20021;-75
2023/01/09 02:08:08;;;;;;;16.80;5.70;;;;;;;;;;1045466;28;20492;-75
2023/01/09 02:08:38;;;;;;;10.27;5.68;;;;;;;;;;1043575;28;20111;-75
2023/01/09 02:09:12;;;;;;;9.73;5.80;;;;;;;;;;1040823;28;20017;-75
2023/01/09 02:09:45;;;;;;;10.68;5.60;;;;;;;;;;1043706;28;20021;-75
2023/01/09 02:10:16;;;;;;;10.55;5.18;;;;;;;;;;1046454;28;20028;-75
2023/01/09 02:10:48;;;;;;;14.55;7.00;;;;;;;;;;1044681;28;20056;-75
2023/01/09 02:11:20;;;;;;;12.32;6.50;;;;;;;;;;1047090;28;20024;-75
2023/01/09 02:11:51;;;;;;;11.60;4.72;;;;;;;;;;1046737;28;20019;-75
2023/01/09 02:12:23;;;;;;;11.05;5.55;;;;;;;;;;1046217;28;20119;-75
2023/01/09 02:12:54;;;;;;;10.32;5.30;;;;;;;;;;1046623;28;20166;-76
2023/01/09 02:13:26;;;;;;;15.27;6.10;;;;;;;;;;1049076;28;20106;-75
2023/01/09 02:13:57;;;;;;;12.90;6.40;;;;;;;;;;1044749;28;20562;-75
2023/01/09 02:14:29;;;;;;;9.35;5.40;;;;;;;;;;1045120;28;20486;-75
2023/01/09 02:15:04;;;;;;;9.73;5.60;;;;;;;;;;1045459;28;20086;-75
2023/01/09 02:15:40;;;;;;;18.52;6.57;;;;;;;;;;1046132;28;20012;-76
2023/01/09 02:16:34;;;;;;;10.10;5.03;;;;;;;;;;1046407;28;20025;-75
2023/01/09 02:17:29;;;;;;;10.48;5.78;;;;;;;;;;1038122;28;20569;-75
2023/01/09 02:18:08;;;;;;;13.10;5.35;;;;;;;;;;1045176;28;20025;-75
2023/01/09 02:18:50;;;;;;;16.00;6.55;;;;;;;;;;1043681;28;20049;-75
2023/01/09 02:19:21;;;;;;;10.90;5.43;;;;;;;;;;1044515;28;20060;-75
2023/01/09 02:20:00;;;;;;;15.57;5.80;;;;;;;;;;1044792;28;20505;-75
2023/01/09 02:20:34;;;;;;;9.02;4.78;;;;;;;;;;1046025;28;20347;-75
2023/01/09 02:21:05;;;;;;;13.82;5.60;;;;;;;;;;1045651;28;20111;-75
2023/01/09 02:21:35;;;;;;;9.35;5.50;;;;;;;;;;1046005;28;20021;-75
2023/01/09 02:22:12;;;;;;;9.05;4.88;;;;;;;;;;1045804;28;20024;-75
2023/01/09 02:22:59;;;;;;;9.43;4.75;;;;;;;;;;1046288;28;20114;-75
2023/01/09 02:23:30;;;;;;;8.35;5.22;;;;;;;;;;1044503;28;20055;-75
2023/01/09 02:24:03;;;;;;;13.65;5.35;;;;;;;;;;1045169;28;20483;-75
2023/01/09 02:24:34;;;;;;;11.25;5.60;;;;;;;;;;1046630;28;20491;-75
2023/01/09 02:25:24;;;;;;;7.07;4.75;;;;;;;;;;1045873;28;20016;-75
2023/01/09 02:26:11;;;;;;;10.70;4.55;;;;;;;;;;1034470;28;20030;-75
2023/01/09 02:27:01;;;;;;;10.60;6.43;;;;;;;;;;1045969;28;20032;-75
2023/01/09 02:27:44;;;;;;;7.65;4.60;;;;;;;;;;1046449;28;20013;-75
2023/01/09 02:28:34;;;;;;;10.82;5.18;;;;;;;;;;1043180;28;20076;-75
2023/01/09 02:29:19;;;;;;;9.50;5.05;;;;;;;;;;1046081;28;20548;-75
2023/01/09 02:30:13;;;;;;;11.80;3.97;;;;;;;;;;1046753;28;20060;-76
2023/01/09 02:30:48;;;;;;;17.25;6.30;;;;;;;;;;1045559;28;20017;-75
2023/01/09 02:31:21;;;;;;;11.35;4.63;;;;;;;;;;1047713;28;20028;-76
2023/01/09 02:32:10;;;;;;;11.43;5.03;;;;;;;;;;1049752;28;20025;-76
2023/01/09 02:32:46;;;;;;;9.75;5.18;;;;;;;;;;1045636;28;20448;-75
2023/01/09 02:33:23;;;;;;;19.38;7.15;;;;;;;;;;1045667;28;20020;-76
2023/01/09 02:33:53;;;;;;;18.80;6.72;;;;;;;;;;1044693;28;20035;-76
2023/01/09 02:34:31;;;;;;;10.85;6.32;;;;;;;;;;1044990;28;20063;-76
2023/01/09 02:35:10;;;;;;;12.88;6.25;;;;;;;;;;1047142;28;20590;-76
2023/01/09 02:35:52;;;;;;;29.70;12.18;;;;;;;;;;1045945;28;20028;-76
2023/01/09 02:36:25;;;;;;;20.95;9.70;;;;;;;;;;1046095;28;20036;-76
2023/01/09 02:36:56;;;;;;;32.22;10.15;;;;;;;;;;1044659;28;20544;-76
2023/01/09 02:37:49;;;;;;;25.58;10.27;;;;;;;;;;1045679;28;20017;-76
2023/01/09 02:38:37;;;;;;;19.67;9.80;;;;;;;;;;1045980;28;20058;-76
2023/01/09 02:39:08;;;;;;;21.60;9.50;;;;;;;;;;1047273;28;20040;-75
2023/01/09 02:40:04;;;;;;;17.45;7.53;;;;;;;;;;1042701;28;20537;-76
2023/01/09 02:40:57;;;;;;;20.42;9.23;;;;;;;;;;1041693;28;20037;-75
2023/01/09 02:41:27;;;;;;;20.58;8.05;;;;;;;;;;1043965;28;20059;-75
2023/01/09 02:41:58;;;;;;;14.27;6.50;;;;;;;;;;1047594;28;20387;-75
2023/01/09 02:42:29;;;;;;;13.90;6.70;;;;;;;;;;1048559;28;20116;-75
2023/01/09 02:43:01;;;;;;;16.45;6.57;;;;;;;;;;1046166;28;20012;-76
2023/01/09 02:43:31;;;;;;;11.02;5.85;;;;;;;;;;1043094;28;20579;-76
2023/01/09 02:44:13;;;;;;;16.25;7.53;;;;;;;;;;1045560;28;20025;-76
2023/01/09 02:44:44;;;;;;;11.18;5.70;;;;;;;;;;1043987;28;20030;-75
2023/01/09 02:45:14;;;;;;;11.15;5.72;;;;;;;;;;1044877;28;20721;-75
2023/01/09 02:45:45;;;;;;;9.30;6.15;;;;;;;;;;1045336;28;20093;-76
2023/01/09 02:46:20;;;;;;;12.45;6.55;;;;;;;;;;1041548;28;20119;-76
2023/01/09 02:48:23;;;;;;;9.73;5.38;;;;;;;;;;1032119;28;20144;-76
2023/01/09 02:49:03;;;;;;;17.50;6.50;;;;;;;;;;1032984;28;20036;-75
2023/01/09 02:49:38;;;;;;;10.15;5.47;;;;;;;;;;1032155;28;20018;-75
2023/01/09 02:50:12;;;;;;;10.63;6.20;;;;;;;;;;1026289;28;20510;-75
2023/01/09 02:51:16;;;;;;;15.55;6.75;;;;;;;;;;1031427;28;20544;-76
2023/01/09 02:52:38;;;;;;;14.02;5.25;;;;;;;;;;1027831;28;20022;-76
2023/01/09 02:53:08;;;;;;;14.13;6.55;;;;;;;;;;1030197;28;20014;-76
2023/01/09 02:54:02;;;;;;;8.23;4.70;;;;;;;;;;1033070;28;20022;-77
2023/01/09 02:54:52;;;;;;;8.88;5.85;;;;;;;;;;1031122;28;20034;-76
2023/01/09 02:55:38;;;;;;;11.02;5.20;;;;;;;;;;1037211;28;20163;-76
2023/01/09 02:56:27;;;;;;;10.75;5.05;;;;;;;;;;1035479;28;20018;-75
2023/01/09 02:57:19;;;;;;;13.18;6.50;;;;;;;;;;1035447;28;20544;-75
2023/01/09 02:58:04;;;;;;;11.73;6.80;;;;;;;;;;1031831;28;20021;-76
2023/01/09 02:58:38;;;;;;;16.08;6.20;;;;;;;;;;1032343;28;20034;-75
2023/01/09 02:59:20;;;;;;;9.45;5.13;;;;;;;;;;1033313;28;20518;-75
2023/01/09 03:00:09;;;;;;;14.90;6.47;;;;;;;;;;1035594;28;20079;-76
2023/01/09 03:00:40;;;;;;;22.02;10.65;;;;;;;;;;1035268;28;20022;-76
2023/01/09 03:01:29;;;;;;;13.50;6.78;;;;;;;;;;1038028;28;20021;-76
2023/01/09 03:02:12;;;;;;;20.35;8.45;;;;;;;;;;1034810;28;20119;-75
2023/01/09 03:03:03;;;;;;;18.45;8.38;;;;;;;;;;1028893;28;20573;-75
2023/01/09 03:03:48;;;;;;;19.02;8.55;;;;;;;;;;1028810;28;20505;-75
2023/01/09 03:04:19;;;;;;;23.50;10.57;;;;;;;;;;1033379;28;20668;-75
2023/01/09 03:04:55;;;;;;;25.67;11.02;;;;;;;;;;1034087;28;20057;-75
2023/01/09 03:05:30;;;;;;;31.27;13.80;;;;;;;;;;1036755;28;20561;-75
2023/01/09 03:06:21;;;;;;;27.95;12.18;;;;;;;;;;1035172;28;20641;-76
2023/01/09 03:06:56;;;;;;;27.13;13.05;;;;;;;;;;1035073;28;20129;-76
2023/01/09 03:07:52;;;;;;;21.17;10.38;;;;;;;;;;1036979;28;20031;-75
2023/01/09 03:08:26;;;;;;;20.77;11.10;;;;;;;;;;1033808;28;20029;-75
2023/01/09 03:09:00;;;;;;;28.92;11.70;;;;;;;;;;1037184;28;20116;-76
2023/01/09 03:09:32;;;;;;;25.88;11.40;;;;;;;;;;1036100;28;20017;-76
2023/01/09 03:10:13;;;;;;;21.17;10.50;;;;;;;;;;1037146;28;20025;-75
2023/01/09 03:10:58;;;;;;;19.20;10.82;;;;;;;;;;1036080;28;20026;-76
2023/01/09 03:11:32;;;;;;;21.23;9.77;;;;;;;;;;1034468;28;20018;-75
2023/01/09 03:12:12;;;;;;;20.83;9.43;;;;;;;;;;1033989;28;20392;-76
2023/01/09 03:12:43;;;;;;;19.58;9.15;;;;;;;;;;1033342;28;20049;-75
2023/01/09 03:13:16;;;;;;;27.35;10.85;;;;;;;;;;1034025;28;20153;-75
2023/01/09 03:13:51;;;;;;;18.17;9.20;;;;;;;;;;1034662;28;20452;-76
2023/01/09 03:14:24;;;;;;;19.65;8.60;;;;;;;;;;1037682;28;20034;-75
2023/01/09 03:14:57;;;;;;;20.38;9.32;;;;;;;;;;1034668;28;20482;-75
2023/01/09 03:15:29;;;;;;;22.52;10.50;;;;;;;;;;1033978;28;20465;-75
2023/01/09 03:16:01;;;;;;;14.30;7.93;;;;;;;;;;1030730;28;20505;-75
2023/01/09 03:16:35;;;;;;;18.05;9.32;;;;;;;;;;1032463;28;20129;-75
2023/01/09 03:17:07;;;;;;;21.98;10.05;;;;;;;;;;1035734;28;20029;-76
2023/01/09 03:17:39;;;;;;;26.80;11.20;;;;;;;;;;1036475;28;20402;-75
2023/01/09 03:18:12;;;;;;;18.67;9.57;;;;;;;;;;1037947;28;20022;-75
2023/01/09 03:18:44;;;;;;;25.25;10.82;;;;;;;;;;1035425;28;20144;-75
2023/01/09 03:19:17;;;;;;;20.73;9.23;;;;;;;;;;1033537;28;20604;-75
2023/01/09 03:19:49;;;;;;;16.55;10.55;;;;;;;;;;1032757;28;20617;-75
2023/01/09 03:20:26;;;;;;;22.05;10.43;;;;;;;;;;1031906;28;20029;-75
2023/01/09 03:20:57;;;;;;;20.88;10.63;;;;;;;;;;1034157;28;20034;-75
2023/01/09 03:21:27;;;;;;;26.15;11.55;;;;;;;;;;1035762;28;20485;-75
2023/01/09 03:21:58;;;;;;;21.85;11.88;;;;;;;;;;1036698;28;20013;-76
2023/01/09 03:22:29;;;;;;;33.13;11.85;;;;;;;;;;1035334;28;20094;-75
2023/01/09 03:23:02;;;;;;;24.52;11.30;;;;;;;;;;1037907;28;20442;-75
2023/01/09 03:23:46;;;;;;;24.30;11.80;;;;;;;;;;1035666;28;20018;-76
2023/01/09 03:24:16;;;;;;;23.98;11.38;;;;;;;;;;1036839;28;20041;-77
2023/01/09 03:24:47;;;;;;;21.50;12.18;;;;;;;;;;1035755;28;20040;-76
2023/01/09 03:25:17;;;;;;;22.10;10.38;;;;;;;;;;1035889;28;20090;-75